sensor_id;sensor_type;location;lat;lon;timestamp;P1;durP1;ratioP1;P2;durP2;ratioP2
25615;SDS011;13482;48.234;13.006;2022-12-15T00:02:16;10.93;;;8.13;;
25615;SDS011;13482;48.234;13.006;2022-12-15T00:05:02;11.00;;;7.80;;
25615;SDS011;13482;48.234;13.006;2022-12-15T00:07:48;10.70;;;7.85;;
25615;SDS011;13482;48.234;13.006;2022-12-15T00:10:34;9.88;;;7.53;;
25615;SDS011;13482;48.234;13.006;2022-12-15T00:13:20;9.50;;;7.20;;
25615;SDS011;13482;48.234;13.006;2022-12-15T00:16:06;10.75;;;7.97;;
25615;SDS011;13482;48.234;13.006;2022-12-15T00:18:52;10.50;;;7.80;;
25615;SDS011;13482;48.234;13.006;2022-12-15T00:21:37;10.65;;;7.47;;
25615;SDS011;13482;48.234;13.006;2022-12-15T00:24:23;9.50;;;6.93;;
25615;SDS011;13482;48.234;13.006;2022-12-15T00:27:13;8.75;;;6.68;;
25615;SDS011;13482;48.234;13.006;2022-12-15T00:29:59;9.27;;;6.80;;
25615;SDS011;13482;48.234;13.006;2022-12-15T00:32:44;9.75;;;7.45;;
25615;SDS011;13482;48.234;13.006;2022-12-15T00:35:30;9.90;;;6.88;;
25615;SDS011;13482;48.234;13.006;2022-12-15T00:38:16;10.00;;;7.05;;
25615;SDS011;13482;48.234;13.006;2022-12-15T00:41:02;10.35;;;7.22;;
25615;SDS011;13482;48.234;13.006;2022-12-15T00:43:31;9.88;;;6.90;;
25615;SDS011;13482;48.234;13.006;2022-12-15T00:46:01;9.47;;;7.00;;
25615;SDS011;13482;48.234;13.006;2022-12-15T00:48:48;10.15;;;7.70;;
25615;SDS011;13482;48.234;13.006;2022-12-15T00:51:15;9.80;;;7.03;;
25615;SDS011;13482;48.234;13.006;2022-12-15T00:53:43;10.23;;;7.55;;
25615;SDS011;13482;48.234;13.006;2022-12-15T00:56:30;10.00;;;7.55;;
25615;SDS011;13482;48.234;13.006;2022-12-15T00:59:16;9.40;;;7.47;;
25615;SDS011;13482;48.234;13.006;2022-12-15T01:02:02;10.77;;;7.90;;
25615;SDS011;13482;48.234;13.006;2022-12-15T01:04:48;10.25;;;7.45;;
25615;SDS011;13482;48.234;13.006;2022-12-15T01:07:34;10.50;;;7.43;;
25615;SDS011;13482;48.234;13.006;2022-12-15T01:10:19;10.65;;;7.47;;
25615;SDS011;13482;48.234;13.006;2022-12-15T01:13:05;9.93;;;7.25;;
25615;SDS011;13482;48.234;13.006;2022-12-15T01:15:51;10.68;;;7.65;;
25615;SDS011;13482;48.234;13.006;2022-12-15T01:18:37;10.05;;;7.20;;
25615;SDS011;13482;48.234;13.006;2022-12-15T01:21:23;9.63;;;7.10;;
25615;SDS011;13482;48.234;13.006;2022-12-15T01:23:51;10.65;;;7.78;;
25615;SDS011;13482;48.234;13.006;2022-12-15T01:26:18;10.02;;;7.40;;
25615;SDS011;13482;48.234;13.006;2022-12-15T01:28:46;10.60;;;7.43;;
25615;SDS011;13482;48.234;13.006;2022-12-15T01:31:13;9.25;;;7.22;;
25615;SDS011;13482;48.234;13.006;2022-12-15T01:33:40;10.60;;;7.63;;
25615;SDS011;13482;48.234;13.006;2022-12-15T01:36:09;9.65;;;7.55;;
25615;SDS011;13482;48.234;13.006;2022-12-15T01:38:36;10.25;;;7.22;;
25615;SDS011;13482;48.234;13.006;2022-12-15T01:41:05;10.52;;;7.85;;
25615;SDS011;13482;48.234;13.006;2022-12-15T01:43:36;10.27;;;7.72;;
25615;SDS011;13482;48.234;13.006;2022-12-15T01:51:27;10.80;;;7.57;;
25615;SDS011;13482;48.234;13.006;2022-12-15T01:54:12;9.98;;;7.20;;
25615;SDS011;13482;48.234;13.006;2022-12-15T01:56:47;9.82;;;7.60;;
25615;SDS011;13482;48.234;13.006;2022-12-15T01:59:23;10.15;;;7.53;;
25615;SDS011;13482;48.234;13.006;2022-12-15T02:01:58;9.73;;;7.43;;
25615;SDS011;13482;48.234;13.006;2022-12-15T02:04:26;10.25;;;7.55;;
25615;SDS011;13482;48.234;13.006;2022-12-15T02:06:54;10.20;;;7.57;;
25615;SDS011;13482;48.234;13.006;2022-12-15T02:09:21;11.48;;;8.73;;
25615;SDS011;13482;48.234;13.006;2022-12-15T02:11:59;10.40;;;7.97;;
25615;SDS011;13482;48.234;13.006;2022-12-15T02:14:44;10.93;;;8.07;;
25615;SDS011;13482;48.234;13.006;2022-12-15T02:17:34;9.77;;;7.50;;
25615;SDS011;13482;48.234;13.006;2022-12-15T02:35:55;10.18;;;7.53;;
25615;SDS011;13482;48.234;13.006;2022-12-15T02:38:41;11.57;;;7.75;;
25615;SDS011;13482;48.234;13.006;2022-12-15T02:59:14;11.43;;;8.15;;
25615;SDS011;13482;48.234;13.006;2022-12-15T03:02:21;11.25;;;7.75;;
25615;SDS011;13482;48.234;13.006;2022-12-15T03:04:56;12.23;;;8.50;;
25615;SDS011;13482;48.234;13.006;2022-12-15T03:07:25;11.52;;;8.68;;
25615;SDS011;13482;48.234;13.006;2022-12-15T03:09:58;12.07;;;8.88;;
25615;SDS011;13482;48.234;13.006;2022-12-15T03:12:27;12.10;;;9.02;;
25615;SDS011;13482;48.234;13.006;2022-12-15T03:14:54;10.85;;;8.23;;
25615;SDS011;13482;48.234;13.006;2022-12-15T03:17:21;11.48;;;8.32;;
25615;SDS011;13482;48.234;13.006;2022-12-15T03:19:48;13.10;;;9.18;;
25615;SDS011;13482;48.234;13.006;2022-12-15T03:22:16;12.52;;;9.10;;
25615;SDS011;13482;48.234;13.006;2022-12-15T03:24:43;12.65;;;8.70;;
25615;SDS011;13482;48.234;13.006;2022-12-15T03:27:10;12.85;;;8.35;;
25615;SDS011;13482;48.234;13.006;2022-12-15T03:29:37;13.13;;;9.00;;
25615;SDS011;13482;48.234;13.006;2022-12-15T03:32:05;11.50;;;8.80;;
25615;SDS011;13482;48.234;13.006;2022-12-15T03:34:32;13.65;;;9.25;;
25615;SDS011;13482;48.234;13.006;2022-12-15T03:36:59;12.88;;;9.27;;
25615;SDS011;13482;48.234;13.006;2022-12-15T03:39:26;12.93;;;9.52;;
25615;SDS011;13482;48.234;13.006;2022-12-15T03:41:54;12.43;;;9.43;;
25615;SDS011;13482;48.234;13.006;2022-12-15T03:44:21;12.75;;;9.13;;
25615;SDS011;13482;48.234;13.006;2022-12-15T03:46:48;12.25;;;9.02;;
25615;SDS011;13482;48.234;13.006;2022-12-15T03:49:15;13.27;;;9.32;;
25615;SDS011;13482;48.234;13.006;2022-12-15T03:51:42;15.15;;;10.13;;
25615;SDS011;13482;48.234;13.006;2022-12-15T03:54:13;12.93;;;9.38;;
25615;SDS011;13482;48.234;13.006;2022-12-15T03:56:40;13.83;;;9.73;;
25615;SDS011;13482;48.234;13.006;2022-12-15T03:59:08;15.38;;;10.05;;
25615;SDS011;13482;48.234;13.006;2022-12-15T04:01:35;13.63;;;9.52;;
25615;SDS011;13482;48.234;13.006;2022-12-15T04:04:03;14.45;;;9.98;;
25615;SDS011;13482;48.234;13.006;2022-12-15T04:06:30;13.02;;;9.13;;
25615;SDS011;13482;48.234;13.006;2022-12-15T04:08:57;14.02;;;9.90;;
25615;SDS011;13482;48.234;13.006;2022-12-15T04:11:25;13.85;;;9.63;;
25615;SDS011;13482;48.234;13.006;2022-12-15T04:13:52;11.90;;;8.80;;
25615;SDS011;13482;48.234;13.006;2022-12-15T04:16:19;13.50;;;9.52;;
25615;SDS011;13482;48.234;13.006;2022-12-15T04:18:46;15.02;;;10.50;;
25615;SDS011;13482;48.234;13.006;2022-12-15T04:21:36;15.30;;;10.23;;
25615;SDS011;13482;48.234;13.006;2022-12-15T04:24:04;14.30;;;9.70;;
25615;SDS011;13482;48.234;13.006;2022-12-15T04:26:50;12.70;;;9.07;;
25615;SDS011;13482;48.234;13.006;2022-12-15T04:29:36;13.98;;;9.30;;
25615;SDS011;13482;48.234;13.006;2022-12-15T04:32:22;12.75;;;8.50;;
25615;SDS011;13482;48.234;13.006;2022-12-15T04:35:08;13.80;;;9.38;;
25615;SDS011;13482;48.234;13.006;2022-12-15T04:37:55;12.25;;;8.98;;
25615;SDS011;13482;48.234;13.006;2022-12-15T04:40:41;12.32;;;8.82;;
25615;SDS011;13482;48.234;13.006;2022-12-15T04:43:27;12.63;;;9.52;;
25615;SDS011;13482;48.234;13.006;2022-12-15T04:46:13;14.02;;;9.43;;
25615;SDS011;13482;48.234;13.006;2022-12-15T04:48:59;15.40;;;10.23;;
25615;SDS011;13482;48.234;13.006;2022-12-15T04:51:44;12.55;;;8.57;;
25615;SDS011;13482;48.234;13.006;2022-12-15T04:54:30;14.32;;;9.35;;
25615;SDS011;13482;48.234;13.006;2022-12-15T04:57:16;18.42;;;13.63;;
25615;SDS011;13482;48.234;13.006;2022-12-15T05:00:02;16.65;;;11.18;;
25615;SDS011;13482;48.234;13.006;2022-12-15T05:02:49;13.88;;;10.15;;
25615;SDS011;13482;48.234;13.006;2022-12-15T05:05:43;14.23;;;9.60;;
25615;SDS011;13482;48.234;13.006;2022-12-15T05:08:29;14.38;;;9.75;;
25615;SDS011;13482;48.234;13.006;2022-12-15T05:11:15;14.38;;;9.70;;
25615;SDS011;13482;48.234;13.006;2022-12-15T05:14:02;14.20;;;9.90;;
25615;SDS011;13482;48.234;13.006;2022-12-15T05:16:48;13.27;;;9.75;;
25615;SDS011;13482;48.234;13.006;2022-12-15T05:19:34;11.48;;;8.30;;
25615;SDS011;13482;48.234;13.006;2022-12-15T05:22:20;12.93;;;8.80;;
25615;SDS011;13482;48.234;13.006;2022-12-15T05:25:06;13.02;;;9.40;;
25615;SDS011;13482;48.234;13.006;2022-12-15T05:27:52;11.50;;;7.97;;
25615;SDS011;13482;48.234;13.006;2022-12-15T05:30:38;11.63;;;7.90;;
25615;SDS011;13482;48.234;13.006;2022-12-15T05:33:24;12.25;;;8.68;;
25615;SDS011;13482;48.234;13.006;2022-12-15T05:35:53;13.23;;;8.85;;
25615;SDS011;13482;48.234;13.006;2022-12-15T05:38:23;11.70;;;8.40;;
25615;SDS011;13482;48.234;13.006;2022-12-15T05:40:50;11.68;;;8.60;;
25615;SDS011;13482;48.234;13.006;2022-12-15T05:43:17;12.80;;;8.95;;
25615;SDS011;13482;48.234;13.006;2022-12-15T05:45:51;13.50;;;9.40;;
25615;SDS011;13482;48.234;13.006;2022-12-15T05:48:18;13.23;;;9.32;;
25615;SDS011;13482;48.234;13.006;2022-12-15T05:50:46;13.85;;;9.75;;
25615;SDS011;13482;48.234;13.006;2022-12-15T05:53:14;13.43;;;9.55;;
25615;SDS011;13482;48.234;13.006;2022-12-15T05:55:42;14.02;;;9.50;;
25615;SDS011;13482;48.234;13.006;2022-12-15T05:58:09;14.98;;;10.43;;
25615;SDS011;13482;48.234;13.006;2022-12-15T06:00:36;15.18;;;9.90;;
25615;SDS011;13482;48.234;13.006;2022-12-15T06:03:04;13.35;;;9.30;;
25615;SDS011;13482;48.234;13.006;2022-12-15T06:05:31;14.77;;;10.05;;
25615;SDS011;13482;48.234;13.006;2022-12-15T06:07:59;14.45;;;9.82;;
25615;SDS011;13482;48.234;13.006;2022-12-15T06:10:26;14.13;;;9.70;;
25615;SDS011;13482;48.234;13.006;2022-12-15T06:12:54;15.77;;;10.23;;
25615;SDS011;13482;48.234;13.006;2022-12-15T06:15:21;14.82;;;9.77;;
25615;SDS011;13482;48.234;13.006;2022-12-15T06:17:48;13.65;;;9.80;;
25615;SDS011;13482;48.234;13.006;2022-12-15T06:20:15;13.82;;;9.60;;
25615;SDS011;13482;48.234;13.006;2022-12-15T06:22:42;14.25;;;10.23;;
25615;SDS011;13482;48.234;13.006;2022-12-15T06:25:15;14.05;;;9.68;;
25615;SDS011;13482;48.234;13.006;2022-12-15T06:27:43;14.50;;;9.55;;
25615;SDS011;13482;48.234;13.006;2022-12-15T06:30:10;13.73;;;10.00;;
25615;SDS011;13482;48.234;13.006;2022-12-15T06:32:37;15.20;;;10.30;;
25615;SDS011;13482;48.234;13.006;2022-12-15T06:35:05;15.98;;;10.57;;
25615;SDS011;13482;48.234;13.006;2022-12-15T06:37:32;15.57;;;10.70;;
25615;SDS011;13482;48.234;13.006;2022-12-15T06:40:00;15.10;;;10.27;;
25615;SDS011;13482;48.234;13.006;2022-12-15T06:42:27;14.13;;;10.13;;
25615;SDS011;13482;48.234;13.006;2022-12-15T06:44:54;15.43;;;10.95;;
25615;SDS011;13482;48.234;13.006;2022-12-15T06:47:21;14.77;;;9.88;;
25615;SDS011;13482;48.234;13.006;2022-12-15T06:49:48;14.48;;;10.00;;
25615;SDS011;13482;48.234;13.006;2022-12-15T06:52:16;14.82;;;10.68;;
25615;SDS011;13482;48.234;13.006;2022-12-15T06:54:43;14.80;;;10.73;;
25615;SDS011;13482;48.234;13.006;2022-12-15T06:57:10;14.88;;;10.43;;
25615;SDS011;13482;48.234;13.006;2022-12-15T06:59:37;15.10;;;10.63;;
25615;SDS011;13482;48.234;13.006;2022-12-15T07:02:05;15.65;;;10.27;;
25615;SDS011;13482;48.234;13.006;2022-12-15T07:04:48;14.77;;;10.20;;
25615;SDS011;13482;48.234;13.006;2022-12-15T07:07:16;14.57;;;10.32;;
25615;SDS011;13482;48.234;13.006;2022-12-15T07:09:43;15.35;;;10.82;;
25615;SDS011;13482;48.234;13.006;2022-12-15T07:12:10;15.40;;;11.27;;
25615;SDS011;13482;48.234;13.006;2022-12-15T07:14:38;14.23;;;10.57;;
25615;SDS011;13482;48.234;13.006;2022-12-15T07:17:05;14.35;;;10.13;;
25615;SDS011;13482;48.234;13.006;2022-12-15T07:19:32;15.20;;;10.52;;
25615;SDS011;13482;48.234;13.006;2022-12-15T07:21:59;14.85;;;10.02;;
25615;SDS011;13482;48.234;13.006;2022-12-15T07:24:26;13.82;;;10.23;;
25615;SDS011;13482;48.234;13.006;2022-12-15T07:26:53;14.82;;;10.18;;
25615;SDS011;13482;48.234;13.006;2022-12-15T07:29:21;14.63;;;9.73;;
25615;SDS011;13482;48.234;13.006;2022-12-15T07:31:49;14.18;;;10.15;;
25615;SDS011;13482;48.234;13.006;2022-12-15T07:34:16;15.40;;;10.77;;
25615;SDS011;13482;48.234;13.006;2022-12-15T07:36:43;15.65;;;10.77;;
25615;SDS011;13482;48.234;13.006;2022-12-15T07:39:17;14.38;;;10.50;;
25615;SDS011;13482;48.234;13.006;2022-12-15T07:41:44;14.77;;;10.55;;
25615;SDS011;13482;48.234;13.006;2022-12-15T07:44:12;15.68;;;10.48;;
25615;SDS011;13482;48.234;13.006;2022-12-15T07:46:40;15.68;;;10.50;;
25615;SDS011;13482;48.234;13.006;2022-12-15T07:49:12;16.40;;;10.40;;
25615;SDS011;13482;48.234;13.006;2022-12-15T07:51:39;14.52;;;10.02;;
25615;SDS011;13482;48.234;13.006;2022-12-15T07:54:10;14.93;;;10.50;;
25615;SDS011;13482;48.234;13.006;2022-12-15T07:56:38;17.13;;;11.07;;
25615;SDS011;13482;48.234;13.006;2022-12-15T07:59:06;16.33;;;10.90;;
25615;SDS011;13482;48.234;13.006;2022-12-15T08:01:35;16.08;;;11.23;;
25615;SDS011;13482;48.234;13.006;2022-12-15T08:04:02;16.05;;;10.52;;
25615;SDS011;13482;48.234;13.006;2022-12-15T08:06:30;15.43;;;10.48;;
25615;SDS011;13482;48.234;13.006;2022-12-15T08:08:57;18.23;;;11.55;;
25615;SDS011;13482;48.234;13.006;2022-12-15T08:11:24;15.52;;;10.85;;
25615;SDS011;13482;48.234;13.006;2022-12-15T08:13:51;16.58;;;10.93;;
25615;SDS011;13482;48.234;13.006;2022-12-15T08:16:28;14.93;;;10.50;;
25615;SDS011;13482;48.234;13.006;2022-12-15T08:18:56;16.33;;;11.30;;
25615;SDS011;13482;48.234;13.006;2022-12-15T08:21:24;16.23;;;10.93;;
25615;SDS011;13482;48.234;13.006;2022-12-15T08:23:51;15.75;;;10.80;;
25615;SDS011;13482;48.234;13.006;2022-12-15T08:26:18;14.38;;;10.35;;
25615;SDS011;13482;48.234;13.006;2022-12-15T08:28:53;15.10;;;10.57;;
25615;SDS011;13482;48.234;13.006;2022-12-15T08:31:21;15.82;;;10.75;;
25615;SDS011;13482;48.234;13.006;2022-12-15T08:33:49;15.77;;;10.98;;
25615;SDS011;13482;48.234;13.006;2022-12-15T08:36:18;16.00;;;10.60;;
25615;SDS011;13482;48.234;13.006;2022-12-15T08:38:46;14.73;;;10.60;;
25615;SDS011;13482;48.234;13.006;2022-12-15T08:43:45;14.50;;;10.30;;
25615;SDS011;13482;48.234;13.006;2022-12-15T08:46:15;15.55;;;10.80;;
25615;SDS011;13482;48.234;13.006;2022-12-15T08:48:44;14.63;;;10.27;;
25615;SDS011;13482;48.234;13.006;2022-12-15T08:51:12;16.63;;;11.35;;
25615;SDS011;13482;48.234;13.006;2022-12-15T08:53:40;14.77;;;10.30;;
25615;SDS011;13482;48.234;13.006;2022-12-15T08:56:09;14.95;;;10.32;;
25615;SDS011;13482;48.234;13.006;2022-12-15T08:58:39;13.82;;;10.57;;
25615;SDS011;13482;48.234;13.006;2022-12-15T09:01:12;14.82;;;10.80;;
25615;SDS011;13482;48.234;13.006;2022-12-15T09:03:49;14.73;;;10.75;;
25615;SDS011;13482;48.234;13.006;2022-12-15T09:06:23;15.25;;;11.00;;
25615;SDS011;13482;48.234;13.006;2022-12-15T09:08:54;15.13;;;11.13;;
25615;SDS011;13482;48.234;13.006;2022-12-15T09:11:24;14.68;;;10.65;;
25615;SDS011;13482;48.234;13.006;2022-12-15T09:13:53;14.88;;;10.68;;
25615;SDS011;13482;48.234;13.006;2022-12-15T09:16:21;15.50;;;11.00;;
25615;SDS011;13482;48.234;13.006;2022-12-15T09:18:49;14.35;;;10.32;;
25615;SDS011;13482;48.234;13.006;2022-12-15T09:21:19;15.32;;;11.20;;
25615;SDS011;13482;48.234;13.006;2022-12-15T09:23:49;15.65;;;11.30;;
25615;SDS011;13482;48.234;13.006;2022-12-15T09:26:19;14.18;;;10.70;;
25615;SDS011;13482;48.234;13.006;2022-12-15T09:28:47;15.80;;;10.90;;
25615;SDS011;13482;48.234;13.006;2022-12-15T09:31:23;15.77;;;11.55;;
25615;SDS011;13482;48.234;13.006;2022-12-15T09:33:59;16.30;;;11.43;;
25615;SDS011;13482;48.234;13.006;2022-12-15T09:36:27;16.35;;;11.80;;
25615;SDS011;13482;48.234;13.006;2022-12-15T09:38:58;15.88;;;11.18;;
25615;SDS011;13482;48.234;13.006;2022-12-15T09:41:28;16.75;;;11.80;;
25615;SDS011;13482;48.234;13.006;2022-12-15T09:44:16;16.63;;;11.05;;
25615;SDS011;13482;48.234;13.006;2022-12-15T09:46:52;17.25;;;12.07;;
25615;SDS011;13482;48.234;13.006;2022-12-15T09:49:54;16.05;;;10.70;;
25615;SDS011;13482;48.234;13.006;2022-12-15T09:54:57;15.90;;;11.23;;
25615;SDS011;13482;48.234;13.006;2022-12-15T10:09:16;14.38;;;10.15;;
25615;SDS011;13482;48.234;13.006;2022-12-15T10:14:29;16.45;;;11.45;;
25615;SDS011;13482;48.234;13.006;2022-12-15T10:22:51;15.45;;;11.02;;
25615;SDS011;13482;48.234;13.006;2022-12-15T10:30:54;14.83;;;10.83;;
25615;SDS011;13482;48.234;13.006;2022-12-15T10:33:49;16.75;;;11.02;;
25615;SDS011;13482;48.234;13.006;2022-12-15T10:36:35;18.25;;;11.80;;
25615;SDS011;13482;48.234;13.006;2022-12-15T10:39:02;16.65;;;11.98;;
25615;SDS011;13482;48.234;13.006;2022-12-15T10:41:30;17.25;;;12.45;;
25615;SDS011;13482;48.234;13.006;2022-12-15T10:43:59;19.50;;;12.85;;
25615;SDS011;13482;48.234;13.006;2022-12-15T10:46:28;16.08;;;12.07;;
25615;SDS011;13482;48.234;13.006;2022-12-15T10:48:58;18.30;;;12.50;;
25615;SDS011;13482;48.234;13.006;2022-12-15T10:51:34;18.60;;;12.18;;
25615;SDS011;13482;48.234;13.006;2022-12-15T10:54:32;17.75;;;11.85;;
25615;SDS011;13482;48.234;13.006;2022-12-15T10:57:13;18.05;;;12.05;;
25615;SDS011;13482;48.234;13.006;2022-12-15T10:59:53;17.20;;;12.13;;
25615;SDS011;13482;48.234;13.006;2022-12-15T11:02:41;15.95;;;11.10;;
25615;SDS011;13482;48.234;13.006;2022-12-15T11:07:49;16.45;;;11.90;;
25615;SDS011;13482;48.234;13.006;2022-12-15T11:10:29;15.50;;;11.68;;
25615;SDS011;13482;48.234;13.006;2022-12-15T11:13:19;16.73;;;11.57;;
25615;SDS011;13482;48.234;13.006;2022-12-15T11:15:48;17.63;;;11.90;;
25615;SDS011;13482;48.234;13.006;2022-12-15T11:21:34;16.48;;;11.38;;
25615;SDS011;13482;48.234;13.006;2022-12-15T11:24:31;16.70;;;11.68;;
25615;SDS011;13482;48.234;13.006;2022-12-15T11:27:27;14.13;;;10.25;;
25615;SDS011;13482;48.234;13.006;2022-12-15T11:32:46;15.68;;;10.93;;
25615;SDS011;13482;48.234;13.006;2022-12-15T11:35:22;15.15;;;10.68;;
25615;SDS011;13482;48.234;13.006;2022-12-15T11:41:12;16.95;;;11.45;;
25615;SDS011;13482;48.234;13.006;2022-12-15T11:44:17;17.23;;;11.57;;
25615;SDS011;13482;48.234;13.006;2022-12-15T11:58:52;16.67;;;11.93;;
25615;SDS011;13482;48.234;13.006;2022-12-15T12:07:45;17.77;;;11.70;;
25615;SDS011;13482;48.234;13.006;2022-12-15T12:13:38;17.48;;;12.45;;
25615;SDS011;13482;48.234;13.006;2022-12-15T12:19:37;17.70;;;12.10;;
25615;SDS011;13482;48.234;13.006;2022-12-15T12:22:20;17.25;;;12.43;;
25615;SDS011;13482;48.234;13.006;2022-12-15T12:24:57;17.90;;;12.02;;
25615;SDS011;13482;48.234;13.006;2022-12-15T12:30:20;19.38;;;13.02;;
25615;SDS011;13482;48.234;13.006;2022-12-15T12:32:52;18.38;;;12.60;;
25615;SDS011;13482;48.234;13.006;2022-12-15T12:35:53;18.75;;;13.18;;
25615;SDS011;13482;48.234;13.006;2022-12-15T12:38:25;19.55;;;13.07;;
25615;SDS011;13482;48.234;13.006;2022-12-15T12:41:01;16.85;;;12.43;;
25615;SDS011;13482;48.234;13.006;2022-12-15T12:43:54;17.92;;;12.55;;
25615;SDS011;13482;48.234;13.006;2022-12-15T12:46:30;18.65;;;13.05;;
25615;SDS011;13482;48.234;13.006;2022-12-15T12:49:07;19.38;;;12.60;;
25615;SDS011;13482;48.234;13.006;2022-12-15T12:52:03;18.30;;;12.45;;
25615;SDS011;13482;48.234;13.006;2022-12-15T12:54:54;17.67;;;11.85;;
25615;SDS011;13482;48.234;13.006;2022-12-15T13:03:46;20.83;;;12.32;;
25615;SDS011;13482;48.234;13.006;2022-12-15T13:14:18;18.63;;;12.57;;
25615;SDS011;13482;48.234;13.006;2022-12-15T13:22:40;17.67;;;11.50;;
25615;SDS011;13482;48.234;13.006;2022-12-15T13:27:54;17.45;;;11.68;;
25615;SDS011;13482;48.234;13.006;2022-12-15T13:30:26;16.38;;;12.00;;
25615;SDS011;13482;48.234;13.006;2022-12-15T13:32:53;17.95;;;12.07;;
25615;SDS011;13482;48.234;13.006;2022-12-15T13:35:42;20.48;;;12.73;;
25615;SDS011;13482;48.234;13.006;2022-12-15T13:38:15;19.23;;;13.27;;
25615;SDS011;13482;48.234;13.006;2022-12-15T13:45:52;18.38;;;12.70;;
25615;SDS011;13482;48.234;13.006;2022-12-15T13:48:39;20.90;;;13.05;;
25615;SDS011;13482;48.234;13.006;2022-12-15T13:59:49;17.30;;;12.18;;
25615;SDS011;13482;48.234;13.006;2022-12-15T14:02:22;21.35;;;12.82;;
25615;SDS011;13482;48.234;13.006;2022-12-15T14:07:41;18.40;;;12.85;;
25615;SDS011;13482;48.234;13.006;2022-12-15T14:10:27;17.63;;;12.43;;
25615;SDS011;13482;48.234;13.006;2022-12-15T14:13:00;18.88;;;12.95;;
25615;SDS011;13482;48.234;13.006;2022-12-15T14:15:43;18.48;;;12.40;;
25615;SDS011;13482;48.234;13.006;2022-12-15T14:18:29;17.55;;;11.88;;
25615;SDS011;13482;48.234;13.006;2022-12-15T14:21:00;18.65;;;13.27;;
25615;SDS011;13482;48.234;13.006;2022-12-15T14:26:29;16.25;;;11.48;;
25615;SDS011;13482;48.234;13.006;2022-12-15T14:29:01;18.40;;;12.13;;
25615;SDS011;13482;48.234;13.006;2022-12-15T14:31:31;16.70;;;11.77;;
25615;SDS011;13482;48.234;13.006;2022-12-15T14:34:01;18.27;;;12.57;;
25615;SDS011;13482;48.234;13.006;2022-12-15T14:36:34;18.80;;;13.10;;
25615;SDS011;13482;48.234;13.006;2022-12-15T14:39:03;19.20;;;13.35;;
25615;SDS011;13482;48.234;13.006;2022-12-15T14:41:39;18.75;;;12.63;;
25615;SDS011;13482;48.234;13.006;2022-12-15T14:44:18;18.40;;;13.05;;
25615;SDS011;13482;48.234;13.006;2022-12-15T14:47:06;20.40;;;13.43;;
25615;SDS011;13482;48.234;13.006;2022-12-15T14:49:47;17.80;;;12.05;;
25615;SDS011;13482;48.234;13.006;2022-12-15T14:52:32;20.23;;;13.40;;
25615;SDS011;13482;48.234;13.006;2022-12-15T15:01:01;17.92;;;12.43;;
25615;SDS011;13482;48.234;13.006;2022-12-15T15:03:35;17.75;;;12.05;;
25615;SDS011;13482;48.234;13.006;2022-12-15T15:08:45;18.33;;;12.80;;
25615;SDS011;13482;48.234;13.006;2022-12-15T15:14:23;18.35;;;12.95;;
25615;SDS011;13482;48.234;13.006;2022-12-15T15:17:02;19.48;;;12.88;;
25615;SDS011;13482;48.234;13.006;2022-12-15T15:19:46;18.83;;;12.75;;
25615;SDS011;13482;48.234;13.006;2022-12-15T15:30:55;18.15;;;12.82;;
25615;SDS011;13482;48.234;13.006;2022-12-15T15:33:31;19.25;;;13.10;;
25615;SDS011;13482;48.234;13.006;2022-12-15T15:36:12;19.40;;;13.20;;
25615;SDS011;13482;48.234;13.006;2022-12-15T15:38:41;18.25;;;12.07;;
25615;SDS011;13482;48.234;13.006;2022-12-15T15:41:18;19.48;;;12.93;;
25615;SDS011;13482;48.234;13.006;2022-12-15T15:43:57;16.58;;;12.05;;
25615;SDS011;13482;48.234;13.006;2022-12-15T15:46:27;18.08;;;12.13;;
25615;SDS011;13482;48.234;13.006;2022-12-15T15:48:58;20.02;;;13.73;;
25615;SDS011;13482;48.234;13.006;2022-12-15T15:51:31;19.20;;;13.10;;
25615;SDS011;13482;48.234;13.006;2022-12-15T15:54:00;21.13;;;13.38;;
25615;SDS011;13482;48.234;13.006;2022-12-15T15:56:30;20.08;;;13.25;;
25615;SDS011;13482;48.234;13.006;2022-12-15T15:58:58;20.23;;;13.38;;
25615;SDS011;13482;48.234;13.006;2022-12-15T16:01:38;21.77;;;14.18;;
25615;SDS011;13482;48.234;13.006;2022-12-15T16:04:06;19.42;;;12.82;;
25615;SDS011;13482;48.234;13.006;2022-12-15T16:06:34;20.38;;;13.30;;
25615;SDS011;13482;48.234;13.006;2022-12-15T16:09:04;19.77;;;13.00;;
25615;SDS011;13482;48.234;13.006;2022-12-15T16:11:32;21.63;;;13.75;;
25615;SDS011;13482;48.234;13.006;2022-12-15T16:14:00;21.15;;;13.63;;
25615;SDS011;13482;48.234;13.006;2022-12-15T16:16:30;20.67;;;13.50;;
25615;SDS011;13482;48.234;13.006;2022-12-15T16:18:58;20.95;;;14.00;;
25615;SDS011;13482;48.234;13.006;2022-12-15T16:21:25;21.00;;;13.80;;
25615;SDS011;13482;48.234;13.006;2022-12-15T16:23:53;19.95;;;13.13;;
25615;SDS011;13482;48.234;13.006;2022-12-15T16:26:27;19.25;;;13.27;;
25615;SDS011;13482;48.234;13.006;2022-12-15T16:28:58;21.17;;;13.77;;
25615;SDS011;13482;48.234;13.006;2022-12-15T16:31:29;23.73;;;13.75;;
25615;SDS011;13482;48.234;13.006;2022-12-15T16:34:07;18.77;;;12.48;;
25615;SDS011;13482;48.234;13.006;2022-12-15T16:36:34;20.77;;;12.90;;
25615;SDS011;13482;48.234;13.006;2022-12-15T16:39:02;19.38;;;12.48;;
25615;SDS011;13482;48.234;13.006;2022-12-15T16:41:30;21.58;;;12.32;;
25615;SDS011;13482;48.234;13.006;2022-12-15T16:43:58;23.40;;;14.30;;
25615;SDS011;13482;48.234;13.006;2022-12-15T16:46:25;22.20;;;13.27;;
25615;SDS011;13482;48.234;13.006;2022-12-15T16:48:52;20.92;;;13.25;;
25615;SDS011;13482;48.234;13.006;2022-12-15T16:54:19;19.98;;;12.38;;
25615;SDS011;13482;48.234;13.006;2022-12-15T16:56:52;16.42;;;10.52;;
25615;SDS011;13482;48.234;13.006;2022-12-15T16:59:22;20.02;;;12.75;;
25615;SDS011;13482;48.234;13.006;2022-12-15T17:01:59;18.20;;;11.45;;
25615;SDS011;13482;48.234;13.006;2022-12-15T17:04:27;19.95;;;12.30;;
25615;SDS011;13482;48.234;13.006;2022-12-15T17:06:54;19.15;;;12.48;;
25615;SDS011;13482;48.234;13.006;2022-12-15T17:09:22;18.63;;;11.60;;
25615;SDS011;13482;48.234;13.006;2022-12-15T17:11:50;18.60;;;11.40;;
25615;SDS011;13482;48.234;13.006;2022-12-15T17:14:18;18.63;;;11.80;;
25615;SDS011;13482;48.234;13.006;2022-12-15T17:16:45;18.33;;;11.18;;
25615;SDS011;13482;48.234;13.006;2022-12-15T17:19:12;18.38;;;10.90;;
25615;SDS011;13482;48.234;13.006;2022-12-15T17:21:47;19.92;;;11.48;;
25615;SDS011;13482;48.234;13.006;2022-12-15T17:24:17;20.27;;;11.50;;
25615;SDS011;13482;48.234;13.006;2022-12-15T17:26:46;16.50;;;10.15;;
25615;SDS011;13482;48.234;13.006;2022-12-15T17:29:17;15.80;;;9.85;;
25615;SDS011;13482;48.234;13.006;2022-12-15T17:31:49;18.65;;;10.77;;
25615;SDS011;13482;48.234;13.006;2022-12-15T17:37:01;18.83;;;11.32;;
25615;SDS011;13482;48.234;13.006;2022-12-15T17:39:31;16.83;;;10.40;;
25615;SDS011;13482;48.234;13.006;2022-12-15T17:42:00;17.15;;;10.15;;
25615;SDS011;13482;48.234;13.006;2022-12-15T17:44:29;16.90;;;10.57;;
25615;SDS011;13482;48.234;13.006;2022-12-15T17:47:03;14.70;;;9.45;;
25615;SDS011;13482;48.234;13.006;2022-12-15T17:49:33;17.23;;;10.18;;
25615;SDS011;13482;48.234;13.006;2022-12-15T17:52:05;15.50;;;9.57;;